Time;durP1;ratioP1;P1;durP2;ratioP2;P2;SDS_P1;SDS_P2;PMS_P1;PMS_P2;Temp;Humidity;BMP_temperature;BMP_pressure;BME280_temperature;BME280_humidity;BME280_pressure;Samples;Min_cycle;Max_cycle;Signal;HPM_P1;HPM_P2
2024/01/25 00:00:42;;;;;;;344.63;108.03;;;11.20;80.90;13.90;97301.00;;;;5086374;28;20200;-69
2024/01/25 00:03:31;;;;;;;348.03;113.17;;;11.20;80.80;14.10;97302.00;;;;5084737;28;20234;-69
2024/01/25 00:06:20;;;;;;;347.60;114.80;;;11.20;80.50;13.80;97321.00;;;;5085083;28;20234;-69
2024/01/25 00:09:09;;;;;;;350.10;118.37;;;11.20;81.90;13.60;97311.00;;;;5085780;28;20594;-69
2024/01/25 00:11:58;;;;;;;354.20;121.70;;;11.30;79.90;14.10;97298.00;;;;5083915;28;20199;-67
2024/01/25 00:14:48;;;;;;;352.07;111.70;;;11.30;81.30;13.90;97298.00;;;;5087570;28;20602;-67
2024/01/25 00:17:37;;;;;;;347.03;116.97;;;11.20;82.00;13.20;97282.00;;;;5083742;28;20207;-71
2024/01/25 00:20:26;;;;;;;351.33;114.10;;;11.10;82.50;13.40;97295.00;;;;5083198;28;20214;-70
2024/01/25 00:23:15;;;;;;;347.60;109.03;;;10.80;82.50;13.70;97268.00;;;;5080342;28;20245;-67
2024/01/25 00:26:04;;;;;;;352.23;114.47;;;10.80;82.00;13.40;97265.00;;;;5085849;28;20199;-68
2024/01/25 00:28:53;;;;;;;354.03;114.80;;;10.70;83.40;12.90;97259.00;;;;5084580;28;20576;-72
2024/01/25 00:31:43;;;;;;;344.73;114.03;;;10.60;83.60;13.30;97284.00;;;;5083480;28;21428;-71
2024/01/25 00:34:33;;;;;;;341.47;111.60;;;10.50;83.00;13.00;97275.00;;;;5083033;28;20727;-69
2024/01/25 00:37:23;;;;;;;347.23;117.47;;;10.40;84.40;13.00;97272.00;;;;5085743;28;20207;-70
2024/01/25 00:40:14;;;;;;;348.53;118.57;;;10.30;84.40;12.90;97293.00;;;;5083694;28;20561;-70
2024/01/25 00:43:03;;;;;;;351.70;113.80;;;10.30;85.40;12.80;97293.00;;;;5085994;28;20263;-70
2024/01/25 00:45:53;;;;;;;349.57;119.73;;;10.10;85.60;12.60;97294.00;;;;5083429;28;20256;-70
2024/01/25 00:48:44;;;;;;;329.97;121.30;;;10.00;85.90;12.70;97292.00;;;;5086716;28;20207;-70
2024/01/25 00:51:35;;;;;;;345.23;112.57;;;9.90;85.10;12.90;97287.00;;;;5082908;28;20204;-69
2024/01/25 00:54:24;;;;;;;345.70;107.20;;;9.90;84.60;13.00;97310.00;;;;5083519;28;20256;-68
2024/01/25 00:57:14;;;;;;;352.43;110.87;;;9.90;84.10;13.20;97304.00;;;;5083768;28;20199;-68
2024/01/25 01:00:05;;;;;;;354.17;116.73;;;10.10;83.70;13.00;97290.00;;;;5085524;28;20590;-67
2024/01/25 01:02:55;;;;;;;355.10;123.67;;;10.10;83.40;13.00;97307.00;;;;5086224;28;20210;-68
2024/01/25 01:05:46;;;;;;;346.83;124.33;;;10.20;83.70;13.10;97306.00;;;;5081062;28;20222;-68
2024/01/25 01:08:36;;;;;;;357.43;129.80;;;10.20;83.30;13.10;97314.00;;;;5084297;28;20688;-68
2024/01/25 01:11:25;;;;;;;350.43;110.93;;;10.20;83.60;12.80;97308.00;;;;5087930;28;20214;-67
2024/01/25 01:14:14;;;;;;;350.70;109.60;;;10.10;84.80;12.70;97301.00;;;;5086815;28;20222;-68
2024/01/25 01:17:03;;;;;;;353.50;110.20;;;10.00;85.30;12.50;97312.00;;;;5086088;28;20640;-67
2024/01/25 01:19:52;;;;;;;355.03;108.33;;;9.90;85.80;12.40;97304.00;;;;5085601;28;20606;-68
2024/01/25 01:22:42;;;;;;;349.57;105.60;;;9.70;86.40;12.10;97314.00;;;;5081313;28;20208;-68
2024/01/25 01:25:31;;;;;;;355.23;109.40;;;9.60;87.20;12.00;97306.00;;;;5082668;28;20222;-68
2024/01/25 01:28:20;;;;;;;338.47;98.93;;;9.40;88.00;12.30;97302.00;;;;5091051;28;20203;-68
2024/01/25 01:31:09;;;;;;;340.73;106.50;;;9.40;86.70;12.20;97296.00;;;;5090795;28;20203;-68
2024/01/25 01:33:58;;;;;;;349.57;116.73;;;9.30;87.60;11.90;97262.00;;;;5087753;28;20598;-68
2024/01/25 01:36:47;;;;;;;341.73;103.97;;;9.30;88.40;11.60;97264.00;;;;5087394;28;20627;-67
2024/01/25 01:39:37;;;;;;;346.40;101.50;;;9.10;87.90;12.20;97283.00;;;;5087291;28;20199;-67
2024/01/25 01:42:26;;;;;;;350.47;106.83;;;9.10;86.20;12.30;97282.00;;;;5088072;28;20592;-70
2024/01/25 01:45:15;;;;;;;348.00;104.47;;;9.20;86.30;12.10;97291.00;;;;5086973;28;20240;-70
2024/01/25 01:48:05;;;;;;;343.57;105.87;;;9.30;87.20;12.00;97277.00;;;;5086236;28;20195;-70
2024/01/25 01:50:54;;;;;;;350.87;111.83;;;9.20;87.50;11.90;97270.00;;;;5088795;28;20210;-69
2024/01/25 01:53:43;;;;;;;345.63;111.17;;;9.20;87.90;11.70;97259.00;;;;5089587;28;20220;-69
2024/01/25 01:56:33;;;;;;;354.87;116.70;;;9.10;89.50;11.80;97255.00;;;;5083674;28;20203;-70
2024/01/25 01:59:25;;;;;;;340.63;105.50;;;9.00;89.50;11.60;97256.00;;;;5089723;28;20590;-70
2024/01/25 02:02:14;;;;;;;341.20;101.83;;;9.00;89.90;11.70;97243.00;;;;5088895;28;20642;-67
2024/01/25 02:05:03;;;;;;;350.00;108.17;;;8.90;88.10;11.80;97255.00;;;;5086304;28;20328;-67
2024/01/25 02:07:54;;;;;;;341.80;100.60;;;9.00;87.20;12.20;97258.00;;;;5088899;28;20199;-67
2024/01/25 02:10:43;;;;;;;346.73;111.70;;;9.10;87.00;12.40;97263.00;;;;5088703;28;20214;-68
2024/01/25 02:13:33;;;;;;;348.50;109.87;;;9.30;86.60;12.50;97245.00;;;;5086056;28;20224;-68
2024/01/25 02:16:22;;;;;;;337.60;99.10;;;9.40;85.50;12.70;97246.00;;;;5086717;28;20210;-68
2024/01/25 02:19:11;;;;;;;346.97;108.73;;;9.60;85.10;12.70;97268.00;;;;5089242;28;20877;-68
2024/01/25 02:22:00;;;;;;;353.57;116.93;;;9.70;85.20;12.50;97267.00;;;;5085786;28;20206;-68
2024/01/25 02:24:51;;;;;;;345.43;111.27;;;9.70;85.40;12.50;97285.00;;;;5087085;28;20284;-68
2024/01/25 02:27:43;;;;;;;344.60;115.87;;;9.60;85.50;12.80;97280.00;;;;5088028;28;20203;-69
2024/01/25 02:30:34;;;;;;;350.30;111.03;;;9.70;84.10;12.80;97292.00;;;;5086372;28;20203;-69
2024/01/25 02:33:23;;;;;;;343.97;114.70;;;9.80;84.40;12.60;97281.00;;;;5088287;28;20220;-69
2024/01/25 02:36:12;;;;;;;336.13;113.50;;;9.80;84.80;12.70;97304.00;;;;5087184;28;20203;-69
2024/01/25 02:39:00;;;;;;;349.37;115.87;;;9.80;84.80;12.60;97280.00;;;;5083355;28;20215;-69
2024/01/25 02:41:51;;;;;;;344.07;117.73;;;9.70;85.40;12.50;97279.00;;;;5088108;28;20199;-68
2024/01/25 02:44:39;;;;;;;321.60;113.93;;;9.70;85.70;12.50;97292.00;;;;5087670;28;20226;-69
2024/01/25 02:47:28;;;;;;;340.80;110.27;;;9.60;85.40;12.40;97286.00;;;;5084185;28;20195;-69
2024/01/25 02:50:17;;;;;;;341.70;103.83;;;9.60;85.80;12.20;97296.00;;;;5085545;28;20199;-69
2024/01/25 02:53:06;;;;;;;358.10;116.60;;;9.50;86.10;12.20;97301.00;;;;5082831;28;20209;-69
2024/01/25 02:55:55;;;;;;;350.30;112.43;;;9.40;86.00;12.00;97303.00;;;;5093252;28;20667;-69
2024/01/25 02:58:45;;;;;;;347.23;105.07;;;9.30;87.70;11.70;97300.00;;;;5097362;28;20210;-69
2024/01/25 03:01:41;;;;;;;296.67;113.00;;;9.20;88.40;11.70;97313.00;;;;5095934;28;20192;-68
2024/01/25 03:04:30;;;;;;;259.67;113.10;;;9.10;88.20;11.60;97298.00;;;;5087319;28;20690;-69
2024/01/25 03:07:19;;;;;;;268.10;106.60;;;9.00;88.60;11.80;97284.00;;;;5080983;28;20206;-69
2024/01/25 03:10:09;;;;;;;281.77;116.47;;;8.90;87.70;12.10;97299.00;;;;5085689;28;20210;-68
2024/01/25 03:12:58;;;;;;;287.37;107.63;;;9.00;86.40;11.90;97271.00;;;;5084032;28;20203;-68
2024/01/25 03:15:48;;;;;;;296.53;111.03;;;9.10;86.30;12.00;97294.00;;;;5084435;28;20590;-66
2024/01/25 03:18:37;;;;;;;317.17;114.93;;;9.10;84.20;12.30;97295.00;;;;5084013;28;20192;-67
2024/01/25 03:21:26;;;;;;;324.30;107.10;;;9.30;84.20;12.20;97291.00;;;;5077022;28;20218;-67
2024/01/25 03:24:15;;;;;;;342.50;105.17;;;9.30;83.70;12.30;97301.00;;;;5087592;28;20233;-68
2024/01/25 03:27:04;;;;;;;343.37;103.00;;;9.40;81.60;12.60;97315.00;;;;5083094;28;20199;-71
2024/01/25 03:29:53;;;;;;;344.27;103.53;;;9.60;80.60;12.70;97294.00;;;;5089033;27;20796;-71
2024/01/25 03:32:43;;;;;;;351.40;124.07;;;9.60;80.60;12.50;97289.00;;;;5085988;28;20578;-70
2024/01/25 03:35:32;;;;;;;341.80;101.80;;;9.70;81.20;12.50;97305.00;;;;5087003;28;20198;-71
2024/01/25 03:38:21;;;;;;;340.07;100.50;;;9.60;80.80;12.60;97306.00;;;;5082484;28;20206;-70
2024/01/25 03:41:10;;;;;;;342.20;103.37;;;9.60;80.20;12.60;97317.00;;;;5086839;28;20196;-70
2024/01/25 03:43:59;;;;;;;345.47;106.47;;;9.60;80.80;12.40;97313.00;;;;5087024;28;20216;-70
2024/01/25 03:46:48;;;;;;;339.83;96.87;;;9.60;80.70;12.30;97303.00;;;;5083170;28;20252;-71
2024/01/25 03:49:38;;;;;;;348.70;105.90;;;9.50;81.40;12.20;97317.00;;;;5092495;28;20210;-71
2024/01/25 03:52:29;;;;;;;349.87;108.40;;;9.50;82.10;12.00;97318.00;;;;5089255;28;20740;-71
2024/01/25 03:55:18;;;;;;;352.20;108.07;;;9.40;82.80;12.00;97325.00;;;;5080072;28;20215;-71
2024/01/25 03:58:07;;;;;;;347.33;102.83;;;9.20;82.40;12.20;97302.00;;;;5084917;28;20202;-70
2024/01/25 04:00:56;;;;;;;343.80;101.43;;;9.30;82.40;11.80;97302.00;;;;5085311;28;20736;-68
2024/01/25 04:03:45;;;;;;;340.23;101.57;;;9.20;83.30;11.90;97286.00;;;;5083973;28;20216;-70
2024/01/25 04:06:36;;;;;;;335.83;95.10;;;9.30;83.40;12.10;97290.00;;;;5082609;28;20284;-71
2024/01/25 04:09:24;;;;;;;341.20;97.70;;;9.30;83.50;12.00;97302.00;;;;5084821;28;20195;-71
2024/01/25 04:12:13;;;;;;;336.30;98.70;;;9.20;83.80;11.90;97302.00;;;;5085642;28;20211;-70
2024/01/25 04:15:03;;;;;;;345.70;101.90;;;9.10;83.40;12.00;97316.00;;;;5087361;28;20621;-70
2024/01/25 04:17:53;;;;;;;339.53;99.43;;;9.10;83.70;11.50;97320.00;;;;5077299;28;20207;-70
2024/01/25 04:20:44;;;;;;;335.87;96.63;;;9.00;85.10;11.70;97316.00;;;;5084947;28;20318;-70
2024/01/25 04:23:35;;;;;;;336.13;99.40;;;9.00;85.00;11.60;97314.00;;;;5085608;28;20223;-70
2024/01/25 04:26:24;;;;;;;338.97;98.20;;;9.00;85.40;11.10;97311.00;;;;5081768;28;20234;-69
2024/01/25 04:29:13;;;;;;;338.60;103.23;;;8.80;86.00;11.30;97307.00;;;;5085677;28;20208;-70
2024/01/25 04:32:02;;;;;;;340.87;101.07;;;8.80;86.50;11.10;97329.00;;;;5086433;28;20592;-69
2024/01/25 04:34:50;;;;;;;340.63;107.37;;;8.70;87.30;11.20;97316.00;;;;5086503;28;20218;-70
2024/01/25 04:37:39;;;;;;;338.63;106.07;;;8.60;86.90;11.10;97321.00;;;;5085648;28;20577;-70
2024/01/25 04:40:30;;;;;;;333.80;100.00;;;8.60;87.20;11.20;97318.00;;;;5086831;28;20204;-70
2024/01/25 04:43:19;;;;;;;333.93;92.97;;;8.50;87.50;11.10;97332.00;;;;5086295;28;20264;-72
2024/01/25 04:46:08;;;;;;;333.37;89.73;;;8.50;88.00;11.30;97332.00;;;;5082288;28;20724;-71
2024/01/25 04:48:57;;;;;;;336.10;91.90;;;8.50;88.20;11.30;97348.00;;;;5086084;28;20215;-69
2024/01/25 04:51:45;;;;;;;329.80;91.90;;;8.50;88.60;11.30;97329.00;;;;5084661;28;20239;-72
2024/01/25 04:54:34;;;;;;;332.73;98.20;;;8.50;88.30;11.60;97305.00;;;;5083922;28;20609;-69
2024/01/25 04:57:25;;;;;;;333.40;96.60;;;8.60;88.30;11.50;97308.00;;;;5086060;28;20417;-70
2024/01/25 05:00:15;;;;;;;335.13;95.73;;;8.70;89.00;10.80;97330.00;;;;5085747;28;20199;-70
2024/01/25 05:03:05;;;;;;;337.93;94.47;;;8.70;88.80;11.50;97340.00;;;;5090054;28;20696;-72
2024/01/25 05:05:53;;;;;;;337.87;95.10;;;8.80;88.40;11.10;97326.00;;;;5080855;28;20219;-72
2024/01/25 05:08:43;;;;;;;336.67;99.20;;;8.80;88.70;11.20;97340.00;;;;5084344;28;20205;-68
2024/01/25 05:11:32;;;;;;;339.27;94.43;;;8.80;88.80;11.60;97351.00;;;;5082100;28;20204;-71
2024/01/25 05:14:23;;;;;;;331.73;91.27;;;8.90;89.00;11.60;97339.00;;;;5080121;28;20231;-68
2024/01/25 05:17:11;;;;;;;343.47;100.63;;;8.90;88.90;11.40;97339.00;;;;5084900;28;20340;-69
2024/01/25 05:20:00;;;;;;;342.93;100.33;;;8.90;89.20;11.40;97368.00;;;;5089511;28;20207;-68
2024/01/25 05:22:49;;;;;;;330.93;94.17;;;8.90;89.40;11.50;97357.00;;;;5079861;28;21037;-69
2024/01/25 05:25:38;;;;;;;335.17;93.83;;;8.80;90.00;11.50;97367.00;;;;5086864;28;20219;-70
2024/01/25 05:28:27;;;;;;;328.73;89.43;;;8.80;90.10;11.20;97379.00;;;;5084182;28;20208;-70
2024/01/25 05:31:17;;;;;;;336.50;93.57;;;8.70;90.20;11.10;97367.00;;;;5085805;28;20207;-70
2024/01/25 05:34:06;;;;;;;340.33;95.80;;;8.60;90.50;11.00;97372.00;;;;5086173;28;20279;-69
2024/01/25 05:36:55;;;;;;;343.13;98.07;;;8.60;90.80;11.10;97377.00;;;;5090377;28;20202;-70
2024/01/25 05:39:44;;;;;;;340.97;97.13;;;8.50;90.90;10.80;97374.00;;;;5086613;28;20192;-70
2024/01/25 05:42:33;;;;;;;346.73;99.43;;;8.40;91.20;10.70;97374.00;;;;5086837;28;20210;-70
2024/01/25 05:45:23;;;;;;;343.50;98.63;;;8.30;91.30;9.80;97378.00;;;;5082310;28;20219;-70
2024/01/25 05:48:13;;;;;;;335.77;94.73;;;8.10;91.60;10.00;97367.00;;;;5084790;28;20430;-68
2024/01/25 05:51:02;;;;;;;338.50;98.37;;;8.00;92.40;10.60;97379.00;;;;5085795;28;20452;-69
2024/01/25 05:53:51;;;;;;;330.50;89.43;;;8.10;92.50;10.70;97390.00;;;;5085737;28;20230;-69
2024/01/25 05:56:40;;;;;;;336.07;96.00;;;8.10;92.50;10.40;97391.00;;;;5085837;28;20206;-68
2024/01/25 05:59:29;;;;;;;328.10;94.87;;;8.00;92.80;10.40;97406.00;;;;5086054;28;20210;-69
2024/01/25 06:02:18;;;;;;;351.47;102.90;;;8.00;93.20;10.50;97408.00;;;;5081175;28;20199;-67
2024/01/25 06:05:08;;;;;;;431.83;164.67;;;8.00;93.30;10.40;97406.00;;;;5035902;28;20230;-66
2024/01/25 06:07:57;;;;;;;429.20;168.80;;;8.00;93.40;10.60;97408.00;;;;5037610;28;20452;-71
2024/01/25 06:10:46;;;;;;;409.20;156.10;;;8.10;93.40;10.80;97404.00;;;;5036380;28;20550;-72
2024/01/25 06:13:35;;;;;;;435.13;173.13;;;8.20;93.50;10.80;97417.00;;;;5039213;28;20449;-71
2024/01/25 06:16:24;;;;;;;362.33;113.00;;;8.20;93.60;10.80;97429.00;;;;5036086;28;20585;-72
2024/01/25 06:19:13;;;;;;;376.17;128.93;;;8.30;93.70;10.70;97425.00;;;;5044696;27;20294;-73
2024/01/25 06:22:04;;;;;;;348.27;100.00;;;8.30;93.70;10.70;97404.00;;;;5058079;28;20215;-70
2024/01/25 06:24:53;;;;;;;329.27;88.77;;;8.30;93.80;11.00;97416.00;;;;5084032;28;20450;-70
2024/01/25 06:27:41;;;;;;;339.20;93.77;;;8.30;93.70;10.80;97410.00;;;;5089424;27;20293;-68
2024/01/25 06:30:30;;;;;;;334.77;90.97;;;8.30;93.90;10.80;97420.00;;;;5085851;28;20195;-68
2024/01/25 06:33:19;;;;;;;358.30;175.30;;;8.30;93.90;10.60;97422.00;;;;5078479;28;20272;-68
2024/01/25 06:36:09;;;;;;;345.90;102.33;;;8.20;94.10;10.80;97430.00;;;;5058509;28;20230;-70
2024/01/25 06:39:00;;;;;;;341.00;95.83;;;8.20;94.30;10.80;97432.00;;;;5083376;28;20214;-69
2024/01/25 06:41:49;;;;;;;333.80;91.87;;;8.20;94.30;10.80;97447.00;;;;5085205;28;20426;-68
2024/01/25 06:44:38;;;;;;;338.07;92.77;;;8.20;94.40;10.90;97442.00;;;;5081626;28;20348;-68
2024/01/25 06:47:26;;;;;;;421.00;167.70;;;8.30;94.50;11.10;97445.00;;;;5078455;28;20474;-68
2024/01/25 06:50:16;;;;;;;389.73;135.63;;;8.30;94.50;10.60;97451.00;;;;5037241;28;20299;-67
2024/01/25 06:53:05;;;;;;;423.87;168.20;;;8.30;94.80;10.90;97442.00;;;;5035687;28;20264;-67
2024/01/25 06:55:56;;;;;;;419.33;158.43;;;8.30;94.70;11.00;97450.00;;;;5036538;28;20212;-68
2024/01/25 06:58:44;;;;;;;434.37;175.63;;;8.90;94.90;11.20;97457.00;;;;5037660;28;20215;-69
2024/01/25 07:01:33;;;;;;;402.93;152.60;;;8.40;94.80;11.20;97470.00;;;;5039580;28;20207;-68
2024/01/25 07:04:22;;;;;;;428.00;174.90;;;8.50;94.80;11.20;97472.00;;;;5042366;28;20226;-69
2024/01/25 07:07:14;;;;;;;427.13;172.87;;;8.60;94.90;11.40;97480.00;;;;5038358;28;20231;-68
2024/01/25 07:10:04;;;;;;;420.03;165.07;;;8.70;95.10;11.50;97464.00;;;;5040183;28;20291;-68
2024/01/25 07:12:55;;;;;;;405.13;156.87;;;8.70;95.30;11.50;97458.00;;;;5039830;28;20297;-70
2024/01/25 07:15:44;;;;;;;416.07;169.60;;;8.80;95.50;11.40;97470.00;;;;5037130;28;20252;-68
2024/01/25 07:18:33;;;;;;;410.77;166.07;;;8.80;95.70;10.70;97462.00;;;;5037635;28;20207;-70
2024/01/25 07:21:22;;;;;;;334.87;95.07;;;8.70;95.50;11.20;97462.00;;;;5084017;28;21044;-71
2024/01/25 07:24:11;;;;;;;348.13;106.70;;;8.70;95.70;11.50;97470.00;;;;5081668;28;20250;-69
2024/01/25 07:27:00;;;;;;;345.77;103.30;;;8.80;95.70;11.30;97481.00;;;;5075673;28;20242;-70
2024/01/25 07:29:50;;;;;;;355.43;107.50;;;8.80;95.40;11.10;97468.00;;;;5077090;28;20207;-71
2024/01/25 07:32:41;;;;;;;345.37;99.23;;;8.80;95.10;12.00;97460.00;;;;5074633;28;20196;-69
2024/01/25 07:35:30;;;;;;;341.73;98.93;;;9.00;95.30;11.70;97467.00;;;;5079927;28;20680;-70
2024/01/25 07:38:19;;;;;;;337.80;95.10;;;9.10;95.30;11.10;97480.00;;;;5089345;28;20222;-71
2024/01/25 07:41:08;;;;;;;350.97;104.97;;;9.00;95.10;11.00;97474.00;;;;5087546;28;20206;-71
2024/01/25 07:43:57;;;;;;;350.83;104.53;;;9.00;95.40;11.40;97487.00;;;;5080721;28;20227;-69
2024/01/25 07:46:47;;;;;;;342.57;97.93;;;9.00;95.40;11.20;97475.00;;;;5086728;28;20223;-70
2024/01/25 07:49:36;;;;;;;345.10;99.17;;;9.00;95.30;10.40;97438.00;;;;5085002;28;20222;-69
2024/01/25 07:52:25;;;;;;;348.10;108.93;;;8.90;95.30;10.10;97428.00;;;;5081176;28;20195;-68
2024/01/25 07:55:15;;;;;;;352.03;109.00;;;8.90;95.40;10.10;97434.00;;;;5086850;28;20248;-69
2024/01/25 07:58:04;;;;;;;355.63;103.73;;;8.80;95.10;10.40;97437.00;;;;5084684;28;20207;-69
2024/01/25 08:00:52;;;;;;;344.87;98.53;;;8.80;95.40;11.60;97450.00;;;;5086942;28;20228;-68
2024/01/25 08:03:43;;;;;;;351.70;104.03;;;8.90;95.20;11.70;97475.00;;;;5083535;28;20223;-70
2024/01/25 08:06:32;;;;;;;341.67;95.63;;;9.00;95.10;11.70;97478.00;;;;5086007;28;20195;-69
2024/01/25 08:09:21;;;;;;;348.10;98.63;;;9.10;95.10;11.30;97467.00;;;;5087468;28;20203;-69
2024/01/25 08:12:09;;;;;;;357.57;107.80;;;9.10;95.10;11.50;97484.00;;;;5087285;28;20210;-69
2024/01/25 08:14:58;;;;;;;346.23;101.07;;;9.10;95.10;12.20;97491.00;;;;5085342;28;20223;-69
2024/01/25 08:17:47;;;;;;;339.33;94.13;;;9.20;95.20;11.70;97498.00;;;;5086076;28;20206;-69
2024/01/25 08:20:39;;;;;;;341.50;95.27;;;9.20;94.90;11.20;97501.00;;;;5084426;28;20214;-69
2024/01/25 08:23:28;;;;;;;335.90;93.17;;;9.20;95.00;11.60;97502.00;;;;5081707;28;20726;-70
2024/01/25 08:26:17;;;;;;;339.23;95.43;;;9.30;94.80;12.00;97504.00;;;;5083526;28;20207;-68
2024/01/25 08:29:06;;;;;;;347.37;105.93;;;9.30;94.70;11.70;97499.00;;;;5084834;28;20199;-71
2024/01/25 08:31:55;;;;;;;351.03;106.70;;;9.30;94.70;10.80;97493.00;;;;5073691;28;20203;-67
2024/01/25 08:34:44;;;;;;;354.20;107.80;;;9.30;94.60;11.10;97483.00;;;;5069874;28;20721;-66
2024/01/25 08:37:36;;;;;;;337.27;98.53;;;9.30;94.80;11.70;97492.00;;;;5072427;28;20212;-69
2024/01/25 08:40:25;;;;;;;330.63;92.43;;;9.30;94.80;12.10;97493.00;;;;5080854;28;20244;-69
2024/01/25 08:43:14;;;;;;;332.17;96.70;;;9.40;94.80;12.20;97497.00;;;;5085636;28;20211;-68
2024/01/25 08:46:03;;;;;;;338.57;101.37;;;9.50;94.60;12.30;97479.00;;;;5075169;28;20204;-68
2024/01/25 08:48:52;;;;;;;332.20;96.33;;;9.60;94.60;12.00;97474.00;;;;5077349;28;20227;-71
2024/01/25 08:51:41;;;;;;;334.07;95.10;;;9.60;94.40;12.00;97472.00;;;;5083049;28;20218;-68
2024/01/25 08:54:31;;;;;;;335.33;98.50;;;9.90;94.20;11.80;97468.00;;;;5082975;28;20249;-66
2024/01/25 08:57:20;;;;;;;330.97;99.33;;;9.60;94.20;11.80;97469.00;;;;5085564;28;20218;-67
2024/01/25 09:00:11;;;;;;;340.00;102.13;;;9.70;94.00;12.60;97468.00;;;;5081107;28;20601;-68
2024/01/25 09:03:00;;;;;;;341.23;105.53;;;9.80;93.90;13.00;97455.00;;;;5080292;28;20225;-69
2024/01/25 09:05:49;;;;;;;330.17;99.40;;;10.00;93.70;13.10;97457.00;;;;5084132;28;20236;-68
2024/01/25 09:08:38;;;;;;;338.10;102.60;;;10.10;93.00;13.10;97453.00;;;;5084585;28;20304;-67
2024/01/25 09:11:28;;;;;;;332.47;97.43;;;10.20;93.00;13.30;97451.00;;;;5087037;28;20199;-69
2024/01/25 09:14:17;;;;;;;335.10;100.67;;;10.30;92.80;13.20;97443.00;;;;5081898;28;20232;-68
2024/01/25 09:17:06;;;;;;;342.87;111.73;;;10.30;92.20;12.20;97434.00;;;;5086925;28;20199;-68
2024/01/25 09:19:58;;;;;;;330.90;101.33;;;10.30;91.30;12.40;97437.00;;;;5087480;28;20195;-68
2024/01/25 09:22:47;;;;;;;336.83;100.90;;;10.20;91.50;12.80;97446.00;;;;5085660;28;21081;-70
2024/01/25 09:25:36;;;;;;;331.57;95.13;;;10.30;91.40;13.30;97435.00;;;;5081043;28;20192;-68
2024/01/25 09:28:26;;;;;;;329.93;95.43;;;10.40;91.00;13.20;97431.00;;;;5083167;28;20264;-70
2024/01/25 09:31:15;;;;;;;337.43;106.57;;;10.50;90.40;13.00;97419.00;;;;5087062;28;20341;-67
2024/01/25 09:34:04;;;;;;;335.60;104.30;;;10.50;90.30;13.80;97433.00;;;;5084066;28;20219;-67
2024/01/25 09:36:53;;;;;;;339.53;105.97;;;10.60;90.00;13.90;97439.00;;;;5087132;28;20203;-70
2024/01/25 09:39:42;;;;;;;349.67;106.37;;;10.70;89.90;13.60;97423.00;;;;5081744;28;20196;-67
2024/01/25 09:42:31;;;;;;;352.90;120.20;;;10.80;88.20;13.70;97436.00;;;;5082442;28;20217;-69
2024/01/25 09:45:22;;;;;;;347.87;114.43;;;10.80;88.50;13.50;97412.00;;;;5085935;28;20222;-68
2024/01/25 09:48:11;;;;;;;349.67;114.03;;;10.90;88.10;13.90;97401.00;;;;5085492;28;20822;-68
2024/01/25 09:51:00;;;;;;;346.97;112.40;;;11.00;87.50;14.10;97406.00;;;;5090620;28;20207;-68
2024/01/25 09:53:50;;;;;;;337.80;110.70;;;11.10;87.10;14.00;97404.00;;;;5090371;28;20650;-67
2024/01/25 09:56:42;;;;;;;342.47;116.43;;;11.20;86.20;13.80;97388.00;;;;5089258;28;20200;-69
2024/01/25 09:59:31;;;;;;;342.47;112.27;;;11.30;85.10;14.20;97372.00;;;;5084478;28;20199;-67
2024/01/25 10:02:21;;;;;;;350.17;119.47;;;11.30;85.10;14.20;97378.00;;;;5090153;28;20210;-67
2024/01/25 10:05:10;;;;;;;364.83;126.00;;;11.50;83.20;14.60;97400.00;;;;5089843;28;20230;-68
2024/01/25 10:08:01;;;;;;;350.60;119.17;;;11.50;83.50;14.10;97411.00;;;;5089023;28;20226;-68
2024/01/25 10:10:53;;;;;;;351.77;118.53;;;11.60;81.90;14.00;97374.00;;;;5090279;28;20199;-67
2024/01/25 10:13:42;;;;;;;350.77;123.53;;;11.60;80.50;13.90;97405.00;;;;5084688;28;20227;-67
2024/01/25 10:16:32;;;;;;;343.87;110.67;;;11.60;79.60;13.70;97403.00;;;;5084939;28;20188;-67
2024/01/25 10:19:23;;;;;;;347.87;113.57;;;11.60;80.00;14.30;97360.00;;;;5089389;28;20865;-66
2024/01/25 10:22:13;;;;;;;358.33;129.00;;;11.70;79.90;14.00;97390.00;;;;5087379;28;20707;-67
2024/01/25 10:25:02;;;;;;;348.00;122.97;;;11.80;78.90;14.10;97394.00;;;;5089459;28;20266;-67
2024/01/25 10:27:52;;;;;;;352.93;129.73;;;11.80;78.40;15.10;97388.00;;;;5090588;28;20668;-68
2024/01/25 10:30:41;;;;;;;351.53;119.50;;;12.00;79.20;14.90;97371.00;;;;5087773;28;20202;-68
2024/01/25 10:33:30;;;;;;;351.27;122.83;;;12.10;78.10;15.30;97352.00;;;;5083619;28;20219;-68
2024/01/25 10:36:22;;;;;;;354.20;134.57;;;12.20;77.80;14.90;97363.00;;;;5089569;28;20226;-71
2024/01/25 10:39:11;;;;;;;361.13;130.27;;;12.30;75.70;14.10;97325.00;;;;5089776;28;20202;-66
2024/01/25 10:42:00;;;;;;;359.83;139.23;;;12.50;73.90;15.30;97358.00;;;;5087520;28;20199;-67
2024/01/25 10:44:49;;;;;;;357.23;138.27;;;13.10;73.40;15.10;97346.00;;;;5087907;28;20218;-71
2024/01/25 10:47:40;;;;;;;354.03;138.73;;;13.70;70.70;15.80;97352.00;;;;5085016;28;20203;-68
2024/01/25 10:50:29;;;;;;;358.10;142.37;;;14.30;69.90;15.50;97381.00;;;;5085742;28;20204;-67
2024/01/25 10:53:20;;;;;;;360.20;136.77;;;14.90;66.00;14.70;97285.00;;;;5089054;28;20203;-67
2024/01/25 10:56:09;;;;;;;360.77;136.43;;;14.90;64.80;16.80;97360.00;;;;5086606;28;20737;-66
2024/01/25 10:58:58;;;;;;;365.27;151.80;;;15.00;66.10;16.90;97341.00;;;;5088154;28;20206;-67
2024/01/25 11:01:48;;;;;;;360.97;163.17;;;15.20;65.00;17.60;97369.00;;;;5089706;28;20200;-67
2024/01/25 11:04:37;;;;;;;357.57;155.77;;;15.60;64.10;17.90;97341.00;;;;5067089;22;20783;-84
2024/01/25 11:07:26;;;;;;;360.77;164.70;;;16.10;62.50;16.10;97328.00;;;;5003194;28;20198;-86
2024/01/25 11:10:22;;;;;;;358.73;171.27;;;16.00;60.50;17.10;97343.00;;;;5039370;28;20230;-87
2024/01/25 11:13:15;;;;;;;366.83;168.33;;;15.90;59.80;18.20;97347.00;;;;5035378;28;20255;-87
2024/01/25 11:16:15;;;;;;;362.23;172.37;;;16.30;61.20;18.00;97324.00;;;;5007027;28;20576;-84
2024/01/25 11:19:06;;;;;;;371.77;184.80;;;16.70;58.90;18.40;97334.00;;;;5004336;28;20244;-88
2024/01/25 11:21:56;;;;;;;364.17;172.90;;;17.00;58.70;17.90;97327.00;;;;5008986;28;20280;-89
2024/01/25 11:24:45;;;;;;;372.57;194.37;;;17.00;57.60;18.90;97336.00;;;;5017549;28;20198;-86
2024/01/25 11:27:36;;;;;;;373.80;207.37;;;17.40;57.50;15.80;97323.00;;;;5008875;28;20229;-90
2024/01/25 11:30:27;;;;;;;366.47;185.27;;;16.90;55.80;17.60;97353.00;;;;5029717;28;20230;-86
2024/01/25 11:33:16;;;;;;;360.53;186.87;;;16.70;57.40;16.70;97348.00;;;;5008304;28;20215;-85
2024/01/25 11:36:07;;;;;;;365.23;185.80;;;16.30;56.90;15.00;97314.00;;;;5038979;28;20195;-87
2024/01/25 11:38:57;;;;;;;366.50;184.17;;;16.10;56.60;16.80;97317.00;;;;5005365;28;20213;-88
2024/01/25 11:41:47;;;;;;;369.33;187.63;;;15.40;58.70;17.70;97333.00;;;;5031636;28;20218;-84
2024/01/25 11:44:37;;;;;;;371.87;184.33;;;15.80;58.30;16.50;97313.00;;;;5009460;28;20230;-83
2024/01/25 11:47:26;;;;;;;367.47;186.03;;;15.80;57.40;18.20;97307.00;;;;5042716;28;20656;-84
2024/01/25 11:50:15;;;;;;;381.70;195.57;;;15.90;58.40;17.20;97300.00;;;;5023042;28;20225;-83
2024/01/25 11:53:04;;;;;;;367.60;180.43;;;15.90;57.70;17.90;97314.00;;;;5042763;28;20217;-87
2024/01/25 11:55:56;;;;;;;364.97;186.57;;;16.00;58.50;18.30;97316.00;;;;5009386;28;20209;-87
2024/01/25 11:58:47;;;;;;;368.70;191.93;;;16.00;57.90;18.00;97310.00;;;;5008318;28;20213;-86
2024/01/25 12:01:38;;;;;;;367.87;197.93;;;16.20;58.00;18.80;97313.00;;;;5036649;28;20229;-84
2024/01/25 12:04:27;;;;;;;373.57;213.10;;;16.50;58.20;19.40;97319.00;;;;5037504;28;20259;-87
2024/01/25 12:07:16;;;;;;;377.97;219.93;;;16.80;57.60;19.50;97327.00;;;;5008901;28;20631;-85